Time;durP1;ratioP1;P1;durP2;ratioP2;P2;SDS_P1;SDS_P2;PMS_P1;PMS_P2;Temp;Humidity;BMP_temperature;BMP_pressure;BME280_temperature;BME280_humidity;BME280_pressure;Samples;Min_cycle;Max_cycle;Signal;HPM_P1;HPM_P2
2022/03/17 00:00:32;;;;;;;;;;;9.90;99.90;;;;;;4779995;29;19985;-78
2022/03/17 00:02:57;;;;;;;;;;;9.80;99.90;;;;;;4786821;29;19921;-79
2022/03/17 00:05:23;;;;;;;;;;;9.80;99.90;;;;;;4788316;29;19921;-78
2022/03/17 00:07:48;;;;;;;;;;;9.80;99.90;;;;;;4773761;29;20246;-78
2022/03/17 00:10:15;;;;;;;;;;;9.80;99.90;;;;;;4788199;29;19975;-79
2022/03/17 00:12:42;;;;;;;;;;;9.80;99.90;;;;;;4788096;29;20428;-79
2022/03/17 00:15:08;;;;;;;;;;;9.70;99.90;;;;;;4773359;29;20354;-78
2022/03/17 00:17:34;;;;;;;;;;;9.70;99.90;;;;;;4787832;29;19978;-79
2022/03/17 00:19:59;;;;;;;;;;;9.70;99.90;;;;;;4788282;29;19921;-78
2022/03/17 00:22:25;;;;;;;;;;;9.70;99.90;;;;;;4788798;29;19947;-79
2022/03/17 00:24:50;;;;;;;;;;;9.70;99.90;;;;;;4787945;29;19928;-79
2022/03/17 00:27:15;;;;;;;;;;;9.70;99.90;;;;;;4787885;29;20028;-78
2022/03/17 00:29:41;;;;;;;;;;;9.70;99.90;;;;;;4788492;29;19968;-79
2022/03/17 00:32:07;;;;;;;;;;;9.60;99.90;;;;;;4773151;29;19925;-79
2022/03/17 00:35:35;;;;;;;;;;;9.70;99.90;;;;;;4787884;29;19921;-79
2022/03/17 00:37:23;;;;;;;;;;;9.60;99.90;;;;;;4787986;29;19921;-78
2022/03/17 00:39:49;;;;;;;;;;;9.60;99.90;;;;;;4787648;29;20008;-79
2022/03/17 00:42:15;;;;;;;;;;;9.60;99.90;;;;;;4788417;29;20003;-79
2022/03/17 00:44:41;;;;;;;;;;;9.60;99.90;;;;;;4792117;29;20087;-78
2022/03/17 00:47:07;;;;;;;;;;;9.70;99.90;;;;;;4776530;29;19928;-78
2022/03/17 00:49:32;;;;;;;;;;;9.70;99.90;;;;;;4791813;29;20007;-78
2022/03/17 00:51:58;;;;;;;;;;;9.70;99.90;;;;;;4791605;29;19977;-78
2022/03/17 00:54:23;;;;;;;;;;;9.60;99.90;;;;;;4791700;29;20281;-80
2022/03/17 00:56:49;;;;;;;;;;;9.60;99.90;;;;;;4791141;29;19985;-78
2022/03/17 00:59:14;;;;;;;;;;;9.60;99.90;;;;;;4791374;29;19921;-79
2022/03/17 01:01:39;;;;;;;;;;;9.60;99.90;;;;;;4791574;29;20296;-80
2022/03/17 01:04:05;;;;;;;;;;;9.70;99.90;;;;;;4791276;29;19930;-78
2022/03/17 01:06:30;;;;;;;;;;;9.70;99.90;;;;;;4790797;29;20012;-78
2022/03/17 01:08:56;;;;;;;;;;;9.70;99.90;;;;;;4791376;29;19928;-79
2022/03/17 01:11:22;;;;;;;;;;;9.70;99.90;;;;;;4791051;29;19921;-78
2022/03/17 01:13:47;;;;;;;;;;;9.70;99.90;;;;;;4791285;29;20008;-78
2022/03/17 01:16:13;;;;;;;;;;;9.70;99.90;;;;;;4790610;29;19921;-78
2022/03/17 01:18:39;;;;;;;;;;;9.70;99.90;;;;;;4791289;29;19921;-79
2022/03/17 01:21:04;;;;;;;;;;;9.70;99.90;;;;;;4791548;29;19989;-78
2022/03/17 01:23:30;;;;;;;;;;;9.70;99.90;;;;;;4791357;29;20020;-79
2022/03/17 01:25:55;;;;;;;;;;;9.70;99.90;;;;;;4790727;29;20341;-78
2022/03/17 01:28:21;;;;;;;;;;;9.70;99.90;;;;;;4807555;29;20411;-78
2022/03/17 01:30:46;;;;;;;;;;;9.70;99.90;;;;;;4791068;29;19944;-78
2022/03/17 01:33:12;;;;;;;;;;;9.80;99.90;;;;;;4790955;29;19929;-79
2022/03/17 01:35:37;;;;;;;;;;;9.80;99.90;;;;;;4773857;30;19931;-78
2022/03/17 01:38:03;;;;;;;;;;;9.80;99.90;;;;;;4773107;30;19988;-78
2022/03/17 01:40:28;;;;;;;;;;;9.80;99.90;;;;;;4772950;29;19922;-78
2022/03/17 01:42:54;;;;;;;;;;;9.80;99.90;;;;;;4783922;29;19928;-78
2022/03/17 01:45:20;;;;;;;;;;;9.80;99.90;;;;;;4790680;29;19925;-79
2022/03/17 01:47:45;;;;;;;;;;;9.80;99.90;;;;;;4790523;29;20069;-78
2022/03/17 01:50:13;;;;;;;;;;;9.80;99.90;;;;;;4790431;29;19966;-79
2022/03/17 01:52:39;;;;;;;;;;;9.80;99.90;;;;;;4772908;30;19925;-79
2022/03/17 01:55:05;;;;;;;;;;;9.80;99.90;;;;;;4783097;29;19928;-79
2022/03/17 01:57:31;;;;;;;;;;;9.80;99.90;;;;;;4790441;29;20019;-79
2022/03/17 01:59:58;;;;;;;;;;;9.80;99.90;;;;;;4790875;29;19957;-78
2022/03/17 02:02:24;;;;;;;;;;;9.80;99.90;;;;;;4813434;23;19961;-77
2022/03/17 02:04:50;;;;;;;;;;;9.90;99.90;;;;;;4800113;29;19928;-77
2022/03/17 02:07:16;;;;;;;;;;;9.90;99.90;;;;;;4820824;29;19921;-77
2022/03/17 02:09:42;;;;;;;;;;;9.80;99.90;;;;;;4820649;29;19986;-77
2022/03/17 02:14:53;;;;;;;;;;;9.90;99.90;;;;;;4796859;29;19927;-77
2022/03/17 02:17:20;;;;;;;;;;;9.90;99.90;;;;;;4820400;29;20016;-77
2022/03/17 02:19:46;;;;;;;;;;;9.80;99.90;;;;;;4820556;29;19921;-77
2022/03/17 02:22:13;;;;;;;;;;;9.80;99.90;;;;;;4820659;29;19928;-77
2022/03/17 02:27:25;;;;;;;;;;;9.80;99.90;;;;;;4808148;29;19952;-76
2022/03/17 02:29:51;;;;;;;;;;;9.70;99.90;;;;;;4808110;29;19961;-77
2022/03/17 02:32:17;;;;;;;;;;;9.70;99.90;;;;;;4808120;29;20339;-77
2022/03/17 02:34:44;;;;;;;;;;;9.70;99.90;;;;;;4807397;29;19920;-77
2022/03/17 02:37:12;;;;;;;;;;;9.60;99.90;;;;;;4807924;29;20376;-77
2022/03/17 02:39:38;;;;;;;;;;;9.60;99.90;;;;;;4808462;29;20020;-77
2022/03/17 02:42:04;;;;;;;;;;;9.60;99.90;;;;;;4808108;29;20372;-77
2022/03/17 02:44:29;;;;;;;;;;;9.60;99.90;;;;;;4791304;29;19921;-77
2022/03/17 02:46:55;;;;;;;;;;;9.60;99.90;;;;;;4790189;29;19921;-77
2022/03/17 02:49:20;;;;;;;;;;;9.60;99.90;;;;;;4775234;29;19924;-77
2022/03/17 02:51:46;;;;;;;;;;;9.60;99.90;;;;;;4820108;29;20400;-77
2022/03/17 02:54:11;;;;;;;;;;;9.70;99.90;;;;;;4796035;29;19978;-77
2022/03/17 02:56:37;;;;;;;;;;;9.70;99.90;;;;;;4807844;29;20008;-77
2022/03/17 02:59:02;;;;;;;;;;;9.70;99.90;;;;;;4806373;29;19932;-77
2022/03/17 03:01:28;;;;;;;;;;;9.70;99.90;;;;;;4807808;29;20384;-77
2022/03/17 03:03:53;;;;;;;;;;;9.70;99.90;;;;;;4803013;29;19944;-77
2022/03/17 03:06:19;;;;;;;;;;;9.70;99.90;;;;;;4807408;29;20008;-77
2022/03/17 03:08:44;;;;;;;;;;;9.70;99.90;;;;;;4807609;29;19924;-77
2022/03/17 03:11:10;;;;;;;;;;;9.70;99.90;;;;;;4807588;29;20288;-77
2022/03/17 03:13:36;;;;;;;;;;;9.70;99.90;;;;;;4795788;29;19991;-77
2022/03/17 03:16:02;;;;;;;;;;;9.70;99.90;;;;;;4789281;29;19925;-77
2022/03/17 03:18:28;;;;;;;;;;;9.70;99.90;;;;;;4789251;29;19987;-77
2022/03/17 03:20:53;;;;;;;;;;;9.70;99.90;;;;;;4819887;29;20000;-77
2022/03/17 03:23:19;;;;;;;;;;;9.70;99.90;;;;;;4819497;29;19974;-77
2022/03/17 03:25:44;;;;;;;;;;;9.70;99.90;;;;;;4812249;29;19978;-77
2022/03/17 03:28:10;;;;;;;;;;;9.70;99.90;;;;;;4797603;29;19960;-77
2022/03/17 03:30:36;;;;;;;;;;;9.70;99.90;;;;;;4789161;29;19921;-77
2022/03/17 03:33:03;;;;;;;;;;;9.70;99.90;;;;;;4802302;29;20353;-77
2022/03/17 03:38:12;;;;;;;;;;;9.70;99.90;;;;;;4789120;29;19921;-77
2022/03/17 03:40:38;;;;;;;;;;;9.70;99.90;;;;;;4806830;29;20333;-77
2022/03/17 03:43:03;;;;;;;;;;;9.70;99.90;;;;;;4796826;29;19921;-77
2022/03/17 03:45:29;;;;;;;;;;;9.60;99.90;;;;;;4788939;29;19984;-77
2022/03/17 03:47:54;;;;;;;;;;;9.60;99.90;;;;;;4788753;29;19952;-77
2022/03/17 03:50:20;;;;;;;;;;;9.70;99.90;;;;;;4789267;29;20266;-77
2022/03/17 03:52:45;;;;;;;;;;;9.70;99.90;;;;;;4788721;29;19925;-77
2022/03/17 03:55:11;;;;;;;;;;;9.80;99.90;;;;;;4789265;29;19921;-77
2022/03/17 03:57:36;;;;;;;;;;;9.80;99.90;;;;;;4813679;29;19973;-77
2022/03/17 04:00:06;;;;;;;;;;;9.80;99.90;;;;;;4805596;29;19927;-77
2022/03/17 04:02:32;;;;;;;;;;;9.80;99.90;;;;;;4806902;29;19921;-77
2022/03/17 04:04:57;;;;;;;;;;;9.80;99.90;;;;;;4806789;29;19971;-77
2022/03/17 04:07:23;;;;;;;;;;;9.80;99.90;;;;;;4805755;29;19921;-77
2022/03/17 04:09:48;;;;;;;;;;;9.80;99.90;;;;;;4807027;29;19921;-77
2022/03/17 04:12:14;;;;;;;;;;;9.80;99.90;;;;;;4799626;29;20388;-77
2022/03/17 04:14:40;;;;;;;;;;;9.80;99.90;;;;;;4788579;29;19974;-77
2022/03/17 04:17:05;;;;;;;;;;;9.80;99.90;;;;;;4787734;29;20347;-77
2022/03/17 04:19:31;;;;;;;;;;;9.80;99.90;;;;;;4788616;29;20017;-77
2022/03/17 04:21:57;;;;;;;;;;;9.80;99.90;;;;;;4788656;29;19979;-77
2022/03/17 04:24:22;;;;;;;;;;;9.80;99.90;;;;;;4788519;29;19978;-77
2022/03/17 04:26:48;;;;;;;;;;;9.80;99.90;;;;;;4816773;29;19921;-77
2022/03/17 04:29:14;;;;;;;;;;;9.80;99.90;;;;;;4818654;29;20031;-77
2022/03/17 04:31:41;;;;;;;;;;;9.80;99.90;;;;;;4818915;29;19921;-77
2022/03/17 04:34:07;;;;;;;;;;;9.80;99.90;;;;;;4788462;29;19921;-77
2022/03/17 04:36:33;;;;;;;;;;;9.80;99.90;;;;;;4817192;29;19921;-77
2022/03/17 04:38:59;;;;;;;;;;;9.80;99.90;;;;;;4788642;29;19928;-77
2022/03/17 04:41:25;;;;;;;;;;;9.80;99.90;;;;;;4789159;29;19944;-77
2022/03/17 04:43:51;;;;;;;;;;;9.90;99.90;;;;;;4788194;29;20357;-77
2022/03/17 04:46:17;;;;;;;;;;;9.90;99.90;;;;;;4788077;29;19928;-77
2022/03/17 04:48:43;;;;;;;;;;;9.90;99.90;;;;;;4788416;29;19921;-77
2022/03/17 04:51:08;;;;;;;;;;;9.90;99.90;;;;;;4788365;29;19986;-77
2022/03/17 04:53:34;;;;;;;;;;;10.00;99.90;;;;;;4799737;29;19984;-77
2022/03/17 04:56:04;;;;;;;;;;;10.00;99.90;;;;;;4804378;29;19977;-77
2022/03/17 04:58:31;;;;;;;;;;;10.00;99.90;;;;;;4773256;29;20156;-77
2022/03/17 05:00:57;;;;;;;;;;;10.10;99.90;;;;;;4788221;29;20396;-78
2022/03/17 05:03:23;;;;;;;;;;;10.00;99.90;;;;;;4788031;29;19972;-78
2022/03/17 05:05:50;;;;;;;;;;;9.90;99.90;;;;;;4788296;29;19925;-79
2022/03/17 05:08:16;;;;;;;;;;;9.80;99.90;;;;;;4788340;29;19927;-78
2022/03/17 05:10:42;;;;;;;;;;;9.60;99.90;;;;;;4819310;29;19921;-79
2022/03/17 05:13:09;;;;;;;;;;;9.60;99.90;;;;;;4788286;29;19986;-78
2022/03/17 05:15:35;;;;;;;;;;;9.50;99.90;;;;;;4788971;29;20300;-79
2022/03/17 05:18:01;;;;;;;;;;;9.40;99.90;;;;;;4802254;29;19921;-79
2022/03/17 05:20:26;;;;;;;;;;;9.40;99.90;;;;;;4792129;29;19921;-79
2022/03/17 05:22:52;;;;;;;;;;;9.40;99.90;;;;;;4808516;29;19973;-79
2022/03/17 05:25:18;;;;;;;;;;;9.40;99.90;;;;;;4808676;29;19921;-79
2022/03/17 05:27:44;;;;;;;;;;;9.30;99.90;;;;;;4806619;29;19920;-79
2022/03/17 05:30:10;;;;;;;;;;;9.30;99.90;;;;;;4809939;29;20269;-79
2022/03/17 05:32:36;;;;;;;;;;;9.20;99.90;;;;;;4811006;29;19924;-79
2022/03/17 05:35:01;;;;;;;;;;;9.30;99.90;;;;;;4825996;29;19932;-80
2022/03/17 05:37:27;;;;;;;;;;;9.30;99.90;;;;;;4809951;29;19924;-79
2022/03/17 05:39:52;;;;;;;;;;;9.30;99.90;;;;;;4810629;29;19924;-79
2022/03/17 05:42:18;;;;;;;;;;;9.30;99.90;;;;;;4795469;29;19925;-79
2022/03/17 05:44:43;;;;;;;;;;;9.30;99.90;;;;;;4801432;29;19924;-79
2022/03/17 05:47:09;;;;;;;;;;;9.30;99.90;;;;;;4810917;29;19929;-79
2022/03/17 05:49:34;;;;;;;;;;;9.30;99.90;;;;;;4811866;29;19921;-79
2022/03/17 05:52:00;;;;;;;;;;;9.30;99.90;;;;;;4811652;29;19931;-79
2022/03/17 05:54:25;;;;;;;;;;;9.30;99.90;;;;;;4796360;29;19973;-79
2022/03/17 05:56:51;;;;;;;;;;;9.10;99.90;;;;;;4822828;29;20004;-79
2022/03/17 05:59:16;;;;;;;;;;;8.90;99.90;;;;;;4823497;29;20312;-80
2022/03/17 06:01:42;;;;;;;;;;;8.70;99.90;;;;;;4826223;29;20013;-79
2022/03/17 06:04:07;;;;;;;;;;;8.50;99.90;;;;;;4795441;29;20015;-80
2022/03/17 06:06:33;;;;;;;;;;;8.40;99.90;;;;;;4793667;29;19921;-79
2022/03/17 06:08:58;;;;;;;;;;;8.30;99.90;;;;;;4809289;29;19967;-79
2022/03/17 06:11:23;;;;;;;;;;;8.20;99.90;;;;;;4823252;29;19943;-79
2022/03/17 06:13:49;;;;;;;;;;;8.10;99.90;;;;;;4817899;29;20376;-79
2022/03/17 06:16:14;;;;;;;;;;;8.10;99.90;;;;;;4792844;29;20008;-79
2022/03/17 06:18:40;;;;;;;;;;;8.00;99.90;;;;;;4793828;29;20398;-80
2022/03/17 06:21:06;;;;;;;;;;;8.00;99.90;;;;;;4792658;29;19921;-78
2022/03/17 06:23:32;;;;;;;;;;;7.90;99.90;;;;;;4793278;29;19968;-80
2022/03/17 06:25:57;;;;;;;;;;;7.90;99.90;;;;;;4792812;29;20154;-80
2022/03/17 06:28:23;;;;;;;;;;;7.90;99.90;;;;;;4793527;29;20510;-79
2022/03/17 06:30:48;;;;;;;;;;;7.90;99.90;;;;;;4798654;29;19921;-78
2022/03/17 06:33:14;;;;;;;;;;;7.90;99.90;;;;;;4811088;29;19981;-79
2022/03/17 06:35:40;;;;;;;;;;;7.90;99.90;;;;;;4811223;29;19921;-78
2022/03/17 06:38:06;;;;;;;;;;;7.80;99.90;;;;;;4810780;29;19921;-79
2022/03/17 06:40:33;;;;;;;;;;;7.80;99.90;;;;;;4810606;29;19928;-79
2022/03/17 06:42:59;;;;;;;;;;;7.80;99.90;;;;;;4825280;29;20303;-78
2022/03/17 06:45:25;;;;;;;;;;;7.80;99.90;;;;;;4810309;29;19921;-78
2022/03/17 06:47:50;;;;;;;;;;;7.80;99.90;;;;;;4805581;29;20200;-78
2022/03/17 06:50:17;;;;;;;;;;;7.80;99.90;;;;;;4808906;29;19920;-78
2022/03/17 06:52:42;;;;;;;;;;;7.80;99.90;;;;;;4791382;29;19925;-78
2022/03/17 06:55:08;;;;;;;;;;;7.80;99.90;;;;;;4791663;29;19979;-79
2022/03/17 06:57:33;;;;;;;;;;;7.80;99.90;;;;;;4791920;29;19921;-78
2022/03/17 07:00:00;;;;;;;;;;;7.80;99.90;;;;;;4791691;29;19921;-79
2022/03/17 07:02:26;;;;;;;;;;;7.80;99.90;;;;;;4791214;29;19928;-78
2022/03/17 07:04:51;;;;;;;;;;;7.80;99.90;;;;;;4792364;29;19920;-77
2022/03/17 07:07:17;;;;;;;;;;;7.80;99.90;;;;;;4791126;29;19948;-79
2022/03/17 07:09:42;;;;;;;;;;;7.80;99.90;;;;;;4791231;29;19982;-78
2022/03/17 07:12:09;;;;;;;;;;;7.80;99.90;;;;;;4791673;29;19925;-78
2022/03/17 07:14:35;;;;;;;;;;;7.80;99.90;;;;;;4792817;29;19921;-79
2022/03/17 07:17:00;;;;;;;;;;;7.70;99.90;;;;;;4792234;29;19921;-78
2022/03/17 07:19:25;;;;;;;;;;;7.80;99.90;;;;;;4808708;29;19978;-79
2022/03/17 07:21:54;;;;;;;;;;;7.70;99.90;;;;;;4809031;29;20007;-79
2022/03/17 07:24:19;;;;;;;;;;;7.80;99.90;;;;;;4792679;29;20377;-79
2022/03/17 07:26:45;;;;;;;;;;;7.80;99.90;;;;;;4799062;29;20365;-79
2022/03/17 07:29:10;;;;;;;;;;;7.80;99.90;;;;;;4794553;29;20304;-78
2022/03/17 07:31:36;;;;;;;;;;;7.80;99.90;;;;;;4810427;29;19921;-80
2022/03/17 07:34:01;;;;;;;;;;;7.80;99.90;;;;;;4795372;29;19922;-79
2022/03/17 07:36:27;;;;;;;;;;;7.80;99.90;;;;;;4810878;29;19924;-79
2022/03/17 07:38:54;;;;;;;;;;;7.80;99.90;;;;;;4810545;29;19932;-79
2022/03/17 07:41:19;;;;;;;;;;;7.90;99.90;;;;;;4809729;29;19972;-79
2022/03/17 07:43:46;;;;;;;;;;;7.90;99.90;;;;;;4809315;29;19921;-79
2022/03/17 07:46:12;;;;;;;;;;;7.90;99.90;;;;;;4824969;29;19983;-80
2022/03/17 07:48:38;;;;;;;;;;;7.90;99.90;;;;;;4813365;29;20330;-79
2022/03/17 07:51:03;;;;;;;;;;;8.00;99.90;;;;;;4792756;29;19921;-79
2022/03/17 07:53:29;;;;;;;;;;;8.00;99.90;;;;;;4790206;29;20011;-79
2022/03/17 07:55:55;;;;;;;;;;;8.00;99.90;;;;;;4792572;29;19921;-79
2022/03/17 07:58:21;;;;;;;;;;;8.00;99.90;;;;;;4792190;29;19921;-79
2022/03/17 08:00:47;;;;;;;;;;;8.00;99.90;;;;;;4791540;29;20399;-79
2022/03/17 08:03:12;;;;;;;;;;;8.10;99.90;;;;;;4822014;24;19925;-79
2022/03/17 08:05:38;;;;;;;;;;;8.10;99.90;;;;;;4827528;29;19931;-78
2022/03/17 08:08:04;;;;;;;;;;;8.10;99.90;;;;;;4828509;29;20418;-79
2022/03/17 08:10:29;;;;;;;;;;;8.10;99.90;;;;;;4828188;29;19920;-79
2022/03/17 08:12:55;;;;;;;;;;;8.10;99.90;;;;;;4828835;29;19935;-79
2022/03/17 08:15:21;;;;;;;;;;;8.00;99.90;;;;;;4828592;29;19952;-79
2022/03/17 08:17:46;;;;;;;;;;;8.00;99.90;;;;;;4827889;29;20395;-79
2022/03/17 08:20:11;;;;;;;;;;;8.00;99.90;;;;;;4818844;29;20280;-79
2022/03/17 08:22:37;;;;;;;;;;;7.90;99.90;;;;;;4794834;29;19920;-79
2022/03/17 08:25:03;;;;;;;;;;;7.80;99.90;;;;;;4809732;29;19921;-79
2022/03/17 08:27:29;;;;;;;;;;;7.80;99.90;;;;;;4809841;29;19973;-79
2022/03/17 08:29:54;;;;;;;;;;;7.80;99.90;;;;;;4809642;29;19921;-78
2022/03/17 08:32:20;;;;;;;;;;;7.80;99.90;;;;;;4809217;29;19925;-78
2022/03/17 08:34:46;;;;;;;;;;;7.80;99.90;;;;;;4810124;29;20388;-79
2022/03/17 08:37:11;;;;;;;;;;;7.80;99.90;;;;;;4809929;29;19925;-79
2022/03/17 08:39:37;;;;;;;;;;;7.80;99.90;;;;;;4810043;29;20506;-78
2022/03/17 08:42:03;;;;;;;;;;;7.80;99.90;;;;;;4809954;29;19921;-79
2022/03/17 08:44:28;;;;;;;;;;;7.80;99.90;;;;;;4810810;29;19924;-78
2022/03/17 08:49:38;;;;;;;;;;;8.00;99.90;;;;;;4827939;29;20303;-78
2022/03/17 08:52:04;;;;;;;;;;;8.00;99.90;;;;;;4820140;29;19924;-78
2022/03/17 08:54:30;;;;;;;;;;;8.00;99.90;;;;;;4811115;29;20287;-79
2022/03/17 08:56:59;;;;;;;;;;;8.00;99.90;;;;;;4810126;29;19924;-78
2022/03/17 08:59:31;;;;;;;;;;;7.90;99.90;;;;;;4810676;29;19928;-79
2022/03/17 09:02:01;;;;;;;;;;;7.90;99.90;;;;;;4810361;29;20008;-78
2022/03/17 09:04:27;;;;;;;;;;;8.00;99.90;;;;;;4812469;29;19921;-79
2022/03/17 09:06:59;;;;;;;;;;;7.90;99.90;;;;;;4814366;29;20380;-79
2022/03/17 09:09:25;;;;;;;;;;;8.00;99.90;;;;;;4814172;29;19928;-78
2022/03/17 09:11:50;;;;;;;;;;;8.00;99.90;;;;;;4813974;29;19921;-79
2022/03/17 09:14:16;;;;;;;;;;;8.00;99.90;;;;;;4813316;29;19945;-79
2022/03/17 09:16:41;;;;;;;;;;;8.00;99.90;;;;;;4813288;29;19920;-78
2022/03/17 09:19:07;;;;;;;;;;;8.00;99.90;;;;;;4813725;29;19921;-79
2022/03/17 09:21:32;;;;;;;;;;;7.90;99.90;;;;;;4814529;29;19921;-79
2022/03/17 09:23:59;;;;;;;;;;;7.90;99.90;;;;;;4813538;29;19992;-79
2022/03/17 09:26:26;;;;;;;;;;;7.90;99.90;;;;;;4830451;29;19927;-79
2022/03/17 09:28:52;;;;;;;;;;;7.90;99.90;;;;;;4813072;29;19925;-78
2022/03/17 09:31:17;;;;;;;;;;;7.90;99.90;;;;;;4814355;29;20407;-79
2022/03/17 09:33:45;;;;;;;;;;;7.90;99.90;;;;;;4812999;29;19943;-78
2022/03/17 09:36:10;;;;;;;;;;;7.90;99.90;;;;;;4819175;29;19928;-79
2022/03/17 09:38:36;;;;;;;;;;;7.90;99.90;;;;;;4831340;29;19920;-79
2022/03/17 09:41:23;;;;;;;;;;;8.00;99.90;;;;;;4831762;29;19928;-79
2022/03/17 09:43:47;;;;;;;;;;;8.20;99.90;;;;;;4830382;29;20432;-79
2022/03/17 09:46:14;;;;;;;;;;;8.30;99.90;;;;;;4829990;29;19924;-77
2022/03/17 09:48:40;;;;;;;;;;;8.30;99.90;;;;;;4812073;29;19977;-77
2022/03/17 09:51:05;;;;;;;;;;;8.30;99.90;;;;;;4821750;29;20341;-76
2022/03/17 09:53:31;;;;;;;;;;;8.30;99.90;;;;;;4808805;29;20365;-76
2022/03/17 09:55:57;;;;;;;;;;;8.30;99.90;;;;;;4808877;29;19920;-77
2022/03/17 09:58:22;;;;;;;;;;;8.30;99.90;;;;;;4808964;29;19920;-77
2022/03/17 10:00:48;;;;;;;;;;;8.40;99.90;;;;;;4809942;29;19967;-77
2022/03/17 10:03:14;;;;;;;;;;;8.40;99.90;;;;;;4809047;29;20287;-77
2022/03/17 10:05:41;;;;;;;;;;;8.40;99.90;;;;;;4808927;29;20057;-77
2022/03/17 10:08:07;;;;;;;;;;;8.40;99.90;;;;;;4813876;29;19921;-77
2022/03/17 10:10:37;;;;;;;;;;;8.40;99.90;;;;;;4808666;29;20078;-77
2022/03/17 10:13:22;;;;;;;;;;;8.40;99.90;;;;;;4808548;29;20304;-77
2022/03/17 10:16:07;;;;;;;;;;;8.40;99.90;;;;;;4791866;29;19924;-77
2022/03/17 10:18:37;;;;;;;;;;;8.40;99.90;;;;;;4808550;29;19921;-77
2022/03/17 10:21:07;;;;;;;;;;;8.50;99.90;;;;;;4809173;29;19921;-78
2022/03/17 10:23:33;;;;;;;;;;;8.70;99.90;;;;;;4808469;29;20384;-77
2022/03/17 10:25:58;;;;;;;;;;;8.90;99.90;;;;;;4808476;29;19925;-77
2022/03/17 10:28:26;;;;;;;;;;;9.00;99.90;;;;;;4808702;29;19928;-77
2022/03/17 10:31:04;;;;;;;;;;;9.10;99.90;;;;;;4808494;29;19920;-77
2022/03/17 10:33:31;;;;;;;;;;;9.20;99.90;;;;;;4808567;29;20030;-77
2022/03/17 10:36:11;;;;;;;;;;;9.40;99.90;;;;;;4809071;29;20040;-77
2022/03/17 10:38:42;;;;;;;;;;;9.50;99.90;;;;;;4809103;29;19921;-78
2022/03/17 10:41:11;;;;;;;;;;;9.70;99.90;;;;;;4808989;29;19928;-77
2022/03/17 10:43:38;;;;;;;;;;;10.00;99.90;;;;;;4808501;29;20354;-78
2022/03/17 10:46:06;;;;;;;;;;;10.10;99.90;;;;;;4808137;29;20015;-78
2022/03/17 10:48:32;;;;;;;;;;;10.20;99.90;;;;;;4808986;29;19931;-77
2022/03/17 10:50:58;;;;;;;;;;;10.30;99.90;;;;;;4809567;29;19960;-77
2022/03/17 10:53:30;;;;;;;;;;;10.30;99.90;;;;;;4808306;29;20377;-77
2022/03/17 10:56:08;;;;;;;;;;;10.50;99.90;;;;;;4808120;29;19920;-76
2022/03/17 10:58:40;;;;;;;;;;;10.60;99.90;;;;;;4809367;29;19975;-77
2022/03/17 11:01:06;;;;;;;;;;;10.90;99.90;;;;;;4810757;29;19925;-79
2022/03/17 11:03:32;;;;;;;;;;;11.30;99.90;;;;;;4813230;29;20020;-79
2022/03/17 11:05:57;;;;;;;;;;;11.60;99.90;;;;;;4821585;29;20012;-78
2022/03/17 11:08:23;;;;;;;;;;;11.80;99.90;;;;;;4830398;29;20395;-78
2022/03/17 11:10:52;;;;;;;;;;;11.80;99.90;;;;;;4828755;29;19932;-78
2022/03/17 11:13:17;;;;;;;;;;;11.90;99.90;;;;;;4829351;29;19924;-78
2022/03/17 11:16:01;;;;;;;;;;;11.80;99.90;;;;;;4829031;29;19926;-78
2022/03/17 11:18:31;;;;;;;;;;;11.70;99.90;;;;;;4829229;29;19921;-79
2022/03/17 11:21:10;;;;;;;;;;;11.50;99.90;;;;;;4818318;29;20384;-78
2022/03/17 11:23:49;;;;;;;;;;;11.40;99.90;;;;;;4811334;29;19928;-78
2022/03/17 11:26:20;;;;;;;;;;;11.30;99.90;;;;;;4811641;29;19921;-78
2022/03/17 11:28:47;;;;;;;;;;;11.10;99.90;;;;;;4811282;29;19928;-78
2022/03/17 11:31:18;;;;;;;;;;;11.20;99.90;;;;;;4811997;29;19920;-79
2022/03/17 11:33:43;;;;;;;;;;;11.30;99.90;;;;;;4811088;29;20021;-78
2022/03/17 11:36:09;;;;;;;;;;;11.40;99.90;;;;;;4813844;29;19928;-79
2022/03/17 11:38:38;;;;;;;;;;;11.70;99.90;;;;;;4810773;29;19927;-79
2022/03/17 11:41:06;;;;;;;;;;;12.10;99.90;;;;;;4811441;29;19927;-78
2022/03/17 11:43:58;;;;;;;;;;;12.10;99.90;;;;;;4810857;29;19921;-78
2022/03/17 11:46:25;;;;;;;;;;;11.90;99.90;;;;;;4828259;29;19921;-78
2022/03/17 11:48:51;;;;;;;;;;;11.70;99.90;;;;;;4829745;29;20259;-79
2022/03/17 11:51:18;;;;;;;;;;;11.50;99.90;;;;;;4829294;29;20284;-78
2022/03/17 11:54:01;;;;;;;;;;;11.40;99.90;;;;;;4826873;29;19924;-78
2022/03/17 11:56:31;;;;;;;;;;;11.50;99.90;;;;;;4826376;29;19928;-78
2022/03/17 11:58:57;;;;;;;;;;;11.50;99.90;;;;;;4824581;29;19920;-77
2022/03/17 12:01:28;;;;;;;;;;;11.50;99.90;;;;;;4792926;29;19962;-77
2022/03/17 12:03:55;;;;;;;;;;;11.50;99.90;;;;;;4807839;29;20281;-78
2022/03/17 12:06:24;;;;;;;;;;;11.60;99.90;;;;;;4807557;29;20003;-77
2022/03/17 12:08:51;;;;;;;;;;;11.90;99.90;;;;;;4807903;29;19921;-78
2022/03/17 12:11:18;;;;;;;;;;;12.10;99.90;;;;;;4807394;29;19932;-77
2022/03/17 12:14:03;;;;;;;;;;;12.20;99.90;;;;;;4807178;29;20384;-78
2022/03/17 12:16:49;;;;;;;;;;;12.00;99.90;;;;;;4807007;29;19920;-78
2022/03/17 12:19:28;;;;;;;;;;;11.90;99.90;;;;;;4807186;29;19927;-77
2022/03/17 12:22:04;;;;;;;;;;;12.20;99.90;;;;;;4806949;29;20017;-77
2022/03/17 12:24:48;;;;;;;;;;;12.30;99.90;;;;;;4822095;29;20112;-77
2022/03/17 12:27:15;;;;;;;;;;;12.00;99.90;;;;;;4811997;29;19972;-79
2022/03/17 12:29:41;;;;;;;;;;;12.20;99.90;;;;;;4811874;29;19921;-79
2022/03/17 12:32:08;;;;;;;;;;;12.70;99.90;;;;;;4811650;29;21946;-79
2022/03/17 12:34:35;;;;;;;;;;;12.80;99.90;;;;;;4811267;29;20094;-79
2022/03/17 12:37:01;;;;;;;;;;;13.10;99.90;;;;;;4811160;29;19925;-79
2022/03/17 12:39:31;;;;;;;;;;;13.30;99.90;;;;;;4813776;29;19924;-77
2022/03/17 12:41:57;;;;;;;;;;;13.30;97.90;;;;;;4812623;29;20448;-76
2022/03/17 12:44:26;;;;;;;;;;;13.40;97.50;;;;;;4813050;29;20004;-77
2022/03/17 12:46:51;;;;;;;;;;;13.40;99.90;;;;;;4812464;29;19988;-77
2022/03/17 12:49:18;;;;;;;;;;;13.30;99.90;;;;;;4813017;29;19938;-77
2022/03/17 12:51:43;;;;;;;;;;;13.40;99.90;;;;;;4812486;29;19927;-77
2022/03/17 12:54:11;;;;;;;;;;;13.50;94.80;;;;;;4812234;29;19925;-77
2022/03/17 12:56:51;;;;;;;;;;;13.70;99.90;;;;;;4812180;29;19927;-76
2022/03/17 12:59:17;;;;;;;;;;;13.60;99.90;;;;;;4812939;29;19927;-77
2022/03/17 13:01:44;;;;;;;;;;;13.90;96.90;;;;;;4797265;29;20011;-77
2022/03/17 13:04:10;;;;;;;;;;;13.60;97.60;;;;;;4812311;29;19989;-77
2022/03/17 13:06:54;;;;;;;;;;;13.70;97.80;;;;;;4812157;29;20400;-77
2022/03/17 13:09:27;;;;;;;;;;;13.80;97.10;;;;;;4812380;29;19962;-77
2022/03/17 13:14:45;;;;;;;;;;;14.20;86.30;;;;;;4825627;29;20296;-77
2022/03/17 13:17:11;;;;;;;;;;;14.10;95.60;;;;;;4830109;29;19920;-77
2022/03/17 13:19:46;;;;;;;;;;;14.00;95.70;;;;;;4830210;29;19927;-77
2022/03/17 13:22:12;;;;;;;;;;;14.00;97.60;;;;;;4815141;29;19924;-77
2022/03/17 13:24:38;;;;;;;;;;;14.40;95.00;;;;;;4830307;29;19920;-77
2022/03/17 13:27:03;;;;;;;;;;;14.70;98.20;;;;;;4830264;29;19921;-77
2022/03/17 13:29:31;;;;;;;;;;;14.90;73.30;;;;;;4817345;29;19927;-77
2022/03/17 13:31:57;;;;;;;;;;;14.80;86.30;;;;;;4812073;29;19921;-77
2022/03/17 13:34:40;;;;;;;;;;;14.90;73.20;;;;;;4812152;29;19927;-77
2022/03/17 13:37:10;;;;;;;;;;;15.00;95.90;;;;;;4814834;29;19921;-77
2022/03/17 13:39:36;;;;;;;;;;;14.70;91.90;;;;;;4812113;29;20015;-77
2022/03/17 13:42:05;;;;;;;;;;;14.70;82.00;;;;;;4812181;29;20356;-78
2022/03/17 13:44:41;;;;;;;;;;;14.70;73.60;;;;;;4825701;29;19974;-77
2022/03/17 13:47:30;;;;;;;;;;;14.80;69.50;;;;;;4830053;29;19920;-78
2022/03/17 13:50:09;;;;;;;;;;;15.10;78.80;;;;;;4829987;29;20011;-78
2022/03/17 13:52:34;;;;;;;;;;;15.20;91.70;;;;;;4830200;29;19989;-78
2022/03/17 13:55:00;;;;;;;;;;;15.20;74.20;;;;;;4829882;29;19921;-79
2022/03/17 13:57:26;;;;;;;;;;;15.00;64.30;;;;;;4829674;29;19920;-78
2022/03/17 13:59:51;;;;;;;;;;;14.80;90.50;;;;;;4812191;29;19969;-79
2022/03/17 14:02:21;;;;;;;;;;;15.00;70.00;;;;;;4812361;29;20316;-78
2022/03/17 14:04:53;;;;;;;;;;;15.10;66.30;;;;;;4821896;24;19987;-82
2022/03/17 14:07:19;;;;;;;;;;;15.30;69.30;;;;;;4797222;29;19928;-81
2022/03/17 14:09:45;;;;;;;;;;;15.60;72.10;;;;;;4798394;29;19925;-81
2022/03/17 14:12:10;;;;;;;;;;;15.70;76.70;;;;;;4796904;29;19994;-82
2022/03/17 14:14:36;;;;;;;;;;;15.50;63.90;;;;;;4797331;29;19927;-81
2022/03/17 14:17:01;;;;;;;;;;;15.20;60.30;;;;;;4800721;29;19924;-81
2022/03/17 14:19:27;;;;;;;;;;;15.20;69.00;;;;;;4798886;29;19947;-81
2022/03/17 14:24:38;;;;;;;;;;;15.40;63.70;;;;;;4797088;29;20306;-81
2022/03/17 14:27:04;;;;;;;;;;;15.50;64.10;;;;;;4796018;29;19946;-82
2022/03/17 14:29:29;;;;;;;;;;;15.50;59.60;;;;;;4783269;29;19990;-82
2022/03/17 14:31:55;;;;;;;;;;;15.60;60.90;;;;;;4797698;29;19921;-81
2022/03/17 14:34:22;;;;;;;;;;;15.50;71.10;;;;;;4799409;29;19921;-81
2022/03/17 14:36:48;;;;;;;;;;;15.30;53.90;;;;;;4796974;29;19931;-81
2022/03/17 14:39:14;;;;;;;;;;;15.20;55.60;;;;;;4784036;29;19925;-81
2022/03/17 14:41:40;;;;;;;;;;;15.10;55.90;;;;;;4798456;29;20012;-82